createdAt,value
2023-05-19T00:01:17.770Z,3.35
2023-05-19T00:03:53.909Z,2.17
2023-05-19T00:06:23.551Z,5.72
2023-05-19T00:08:56.025Z,4.07
2023-05-19T00:11:24.192Z,4.70
2023-05-19T00:13:52.347Z,4.60
2023-05-19T00:16:19.973Z,4.85
2023-05-19T00:18:48.356Z,3.40
2023-05-19T00:21:16.829Z,4.10
2023-05-19T00:23:44.325Z,2.85
2023-05-19T00:26:11.786Z,3.83
2023-05-19T00:28:39.918Z,6.87
2023-05-19T00:31:07.405Z,2.12
2023-05-19T00:33:34.953Z,5.80
2023-05-19T00:36:03.657Z,5.90
2023-05-19T00:38:31.387Z,2.95
2023-05-19T00:40:59.619Z,4.07
2023-05-19T00:43:27.514Z,5.32
2023-05-19T00:45:55.001Z,3.50
2023-05-19T00:48:22.630Z,2.53
2023-05-19T00:50:50.472Z,2.08
2023-05-19T00:53:18.280Z,2.70
2023-05-19T00:55:45.915Z,1.52
2023-05-19T00:58:14.027Z,3.85
2023-05-19T01:00:42.802Z,1.92
2023-05-19T01:03:13.291Z,2.25
2023-05-19T01:05:41.803Z,2.85
2023-05-19T01:08:09.341Z,1.73
2023-05-19T01:10:37.303Z,4.22
2023-05-19T01:13:05.792Z,3.28
2023-05-19T01:16:02.169Z,3.47
2023-05-19T01:18:41.049Z,5.78
2023-05-19T01:21:44.611Z,3.28
2023-05-19T01:24:22.986Z,4.60
2023-05-19T01:27:13.876Z,5.82
2023-05-19T01:30:16.955Z,1.98
2023-05-19T01:32:44.434Z,1.77
2023-05-19T01:35:12.236Z,2.95
2023-05-19T01:37:39.686Z,3.10
2023-05-19T01:40:10.607Z,4.78
2023-05-19T01:42:40.020Z,4.50
2023-05-19T01:45:10.635Z,2.47
2023-05-19T01:47:40.413Z,3.00
2023-05-19T01:50:08.115Z,1.95
2023-05-19T01:52:35.717Z,1.65
2023-05-19T01:55:03.536Z,2.42
2023-05-19T01:57:42.321Z,2.95
2023-05-19T02:00:31.035Z,2.35
2023-05-19T02:03:06.054Z,3.30
2023-05-19T02:05:49.735Z,2.28
2023-05-19T02:08:36.093Z,1.87
2023-05-19T02:11:08.020Z,3.33
2023-05-19T02:13:37.986Z,2.72
2023-05-19T02:16:05.942Z,2.17
2023-05-19T02:18:33.617Z,3.70
2023-05-19T02:21:02.108Z,3.65
2023-05-19T02:23:29.616Z,3.08
2023-05-19T02:25:58.038Z,3.08
2023-05-19T02:28:28.480Z,2.78
2023-05-19T02:30:55.968Z,2.35
2023-05-19T02:33:26.100Z,2.47
2023-05-19T02:35:54.084Z,2.25
2023-05-19T02:38:21.575Z,3.22
2023-05-19T02:40:49.066Z,2.55
2023-05-19T02:43:16.817Z,2.78
2023-05-19T02:45:44.300Z,2.78
2023-05-19T02:48:11.832Z,2.17
2023-05-19T02:50:39.709Z,3.67
2023-05-19T02:53:07.157Z,4.60
2023-05-19T02:55:34.699Z,2.78
2023-05-19T02:58:02.455Z,2.35
2023-05-19T03:00:30.113Z,2.37
2023-05-19T03:03:02.691Z,4.03
2023-05-19T03:05:31.198Z,4.65
2023-05-19T03:07:58.736Z,2.10
2023-05-19T03:10:26.289Z,1.87
2023-05-19T03:12:54.060Z,2.85
2023-05-19T03:15:23.421Z,3.65
2023-05-19T03:17:51.108Z,5.00
2023-05-19T03:20:19.025Z,2.90
2023-05-19T03:22:46.513Z,3.83
2023-05-19T03:25:14.006Z,1.87
2023-05-19T03:27:42.239Z,2.17
2023-05-19T03:30:10.215Z,2.83
2023-05-19T03:32:40.163Z,3.30
2023-05-19T03:35:08.422Z,3.90
2023-05-19T03:37:35.970Z,2.67
2023-05-19T03:40:05.459Z,4.05
2023-05-19T03:42:34.093Z,5.85
2023-05-19T03:45:01.655Z,1.83
2023-05-19T03:47:29.284Z,3.67
2023-05-19T03:49:57.470Z,2.62
2023-05-19T03:52:27.273Z,2.65
2023-05-19T03:54:54.997Z,3.65
2023-05-19T03:57:22.814Z,1.65
2023-05-19T03:59:50.288Z,8.73
2023-05-19T04:02:17.777Z,2.08
2023-05-19T04:04:45.618Z,7.35
2023-05-19T04:07:13.086Z,2.60
2023-05-19T04:09:42.912Z,1.52
2023-05-19T04:12:10.985Z,4.25
2023-05-19T04:14:38.597Z,1.73
2023-05-19T04:17:06.087Z,1.95
2023-05-19T04:19:34.037Z,4.18
2023-05-19T04:22:02.456Z,3.08
2023-05-19T04:24:30.630Z,2.30
2023-05-19T04:27:02.717Z,5.87
2023-05-19T04:29:30.487Z,6.47
2023-05-19T04:31:58.325Z,7.70
2023-05-19T04:34:25.841Z,4.78
2023-05-19T04:36:53.552Z,5.55
2023-05-19T04:39:21.879Z,4.95
2023-05-19T04:41:49.631Z,4.05
2023-05-19T04:44:18.504Z,6.62
2023-05-19T04:46:46.826Z,4.03
2023-05-19T04:49:14.538Z,6.85
2023-05-19T04:51:42.407Z,3.05
2023-05-19T04:54:10.360Z,4.03
2023-05-19T04:56:37.934Z,3.55
2023-05-19T04:59:06.951Z,5.90
2023-05-19T05:01:35.221Z,5.63
2023-05-19T05:04:06.396Z,7.50
2023-05-19T05:06:33.919Z,6.62
2023-05-19T05:09:03.733Z,6.80
2023-05-19T05:11:31.537Z,4.75
2023-05-19T05:13:59.382Z,3.35
2023-05-19T05:16:27.663Z,5.57
2023-05-19T05:18:55.913Z,6.35
2023-05-19T05:21:24.346Z,4.20
2023-05-19T05:23:52.416Z,3.50
2023-05-19T05:26:23.282Z,5.57
2023-05-19T05:28:52.344Z,4.95
2023-05-19T05:31:19.816Z,3.72
2023-05-19T05:33:47.285Z,4.57
2023-05-19T05:36:15.534Z,3.85
2023-05-19T05:38:43.004Z,4.05
2023-05-19T05:41:11.123Z,3.75
2023-05-19T05:43:38.955Z,4.55
2023-05-19T05:46:06.477Z,5.18
2023-05-19T05:48:34.248Z,5.10
2023-05-19T05:51:02.131Z,4.45
2023-05-19T05:53:32.137Z,4.00
2023-05-19T05:56:00.135Z,3.50
2023-05-19T05:58:28.861Z,5.37
2023-05-19T06:00:58.043Z,3.60
2023-05-19T06:03:27.033Z,2.92
2023-05-19T06:05:55.153Z,3.37
2023-05-19T06:08:22.729Z,3.70
2023-05-19T06:10:50.690Z,4.57
2023-05-19T06:13:22.539Z,4.65
2023-05-19T06:15:51.177Z,5.30
2023-05-19T06:18:20.006Z,3.92
2023-05-19T06:20:48.686Z,3.45
2023-05-19T06:23:17.304Z,4.90
2023-05-19T06:25:44.762Z,3.97
2023-05-19T06:28:12.425Z,3.00
2023-05-19T06:30:40.355Z,5.05
2023-05-19T06:33:08.701Z,3.42
2023-05-19T06:35:36.535Z,4.47
2023-05-19T06:38:04.287Z,3.20
2023-05-19T06:40:32.027Z,4.50
2023-05-19T06:42:59.701Z,4.82
2023-05-19T06:45:28.438Z,8.35
2023-05-19T06:47:58.366Z,9.65
2023-05-19T06:50:26.033Z,10.18
2023-05-19T06:52:54.932Z,9.07
2023-05-19T06:55:22.419Z,10.27
2023-05-19T06:57:49.977Z,6.68
2023-05-19T07:00:30.618Z,8.88
2023-05-19T07:05:26.197Z,6.55
2023-05-19T07:07:54.054Z,9.73
2023-05-19T07:10:24.440Z,5.85
2023-05-19T07:12:52.759Z,5.75
2023-05-19T07:15:21.082Z,4.97
2023-05-19T07:17:48.798Z,4.15
2023-05-19T07:20:16.982Z,4.70
2023-05-19T07:22:44.746Z,5.95
2023-05-19T07:25:12.254Z,4.70
2023-05-19T07:27:40.133Z,5.28
2023-05-19T07:30:08.420Z,5.93
2023-05-19T07:32:36.041Z,6.12
2023-05-19T07:35:04.323Z,5.93
2023-05-19T07:37:31.916Z,3.62
2023-05-19T07:39:59.447Z,5.87
2023-05-19T07:42:27.172Z,4.57
2023-05-19T07:44:54.627Z,5.87
2023-05-19T07:47:22.191Z,3.53
2023-05-19T07:49:51.769Z,8.68
2023-05-19T07:52:19.488Z,5.32
2023-05-19T07:54:47.052Z,4.32
2023-05-19T07:57:15.034Z,3.67
2023-05-19T07:59:42.467Z,5.15
2023-05-19T08:02:10.035Z,5.75
2023-05-19T08:04:37.856Z,7.62
2023-05-19T08:07:05.363Z,6.05
2023-05-19T08:09:32.876Z,5.28
2023-05-19T08:12:01.792Z,5.37
2023-05-19T08:14:29.332Z,4.45
2023-05-19T08:16:56.756Z,3.97
2023-05-19T08:19:24.815Z,4.20
2023-05-19T08:21:52.332Z,6.07
2023-05-19T08:24:19.770Z,4.60
2023-05-19T08:26:47.481Z,5.43
2023-05-19T08:29:14.986Z,5.55
2023-05-19T08:31:42.552Z,7.78
2023-05-19T08:34:10.663Z,7.60
2023-05-19T08:36:38.161Z,5.07
2023-05-19T08:39:05.951Z,4.78
2023-05-19T08:41:33.833Z,8.50
2023-05-19T08:44:01.281Z,6.80
2023-05-19T08:46:28.772Z,7.05
2023-05-19T08:48:59.240Z,4.53
2023-05-19T08:51:48.400Z,9.82
2023-05-19T08:54:16.627Z,7.55
2023-05-19T08:56:44.885Z,5.53
2023-05-19T08:59:13.390Z,7.40
2023-05-19T09:01:43.143Z,6.97
2023-05-19T09:04:10.668Z,8.30
2023-05-19T09:06:40.971Z,6.00
2023-05-19T09:09:09.155Z,5.85
2023-05-19T09:11:37.765Z,6.40
2023-05-19T09:14:05.771Z,5.05
2023-05-19T09:16:34.144Z,10.55
2023-05-19T09:19:02.028Z,6.00
2023-05-19T09:21:33.153Z,7.85
2023-05-19T09:24:05.004Z,8.27
2023-05-19T09:26:39.707Z,6.93
2023-05-19T09:29:16.789Z,4.70
2023-05-19T09:31:51.131Z,4.75
2023-05-19T09:34:19.092Z,5.43
2023-05-19T09:36:49.461Z,6.47
2023-05-19T09:39:17.497Z,5.97
2023-05-19T09:41:45.249Z,5.20
2023-05-19T09:44:23.065Z,6.47
2023-05-19T09:46:51.078Z,9.70
2023-05-19T09:49:22.307Z,7.10
2023-05-19T09:51:51.325Z,7.10
2023-05-19T09:54:20.526Z,8.35
2023-05-19T09:56:53.196Z,8.32
2023-05-19T09:59:21.044Z,4.57
2023-05-19T10:01:48.723Z,6.12
2023-05-19T10:04:16.654Z,5.25
2023-05-19T10:06:44.245Z,7.05
2023-05-19T10:09:11.709Z,5.85
2023-05-19T10:11:39.482Z,5.80
2023-05-19T10:14:06.951Z,8.85
2023-05-19T10:16:34.423Z,6.65
2023-05-19T10:19:02.416Z,5.60
2023-05-19T10:21:30.100Z,5.07
2023-05-19T10:23:57.927Z,5.70
2023-05-19T10:26:26.154Z,4.68
2023-05-19T10:28:54.683Z,7.15
2023-05-19T10:31:22.139Z,5.82
2023-05-19T10:34:13.020Z,8.30
2023-05-19T10:36:47.745Z,6.65
2023-05-19T10:39:28.952Z,5.90
2023-05-19T10:42:41.584Z,5.00
2023-05-19T10:45:20.236Z,5.87
2023-05-19T10:47:47.760Z,8.40
2023-05-19T10:50:15.691Z,5.90
2023-05-19T10:52:44.684Z,5.30
2023-05-19T10:55:17.507Z,5.57
2023-05-19T10:57:56.816Z,5.65
2023-05-19T11:00:28.059Z,6.93
2023-05-19T11:03:15.768Z,6.15
2023-05-19T11:05:45.690Z,7.25
2023-05-19T11:10:44.029Z,6.60
2023-05-19T11:13:19.157Z,7.35
2023-05-19T11:15:46.838Z,9.30
2023-05-19T11:18:16.060Z,6.68
2023-05-19T11:20:44.622Z,9.23
2023-05-19T11:23:18.515Z,7.72
2023-05-19T11:25:49.488Z,7.22
2023-05-19T11:28:21.232Z,7.47
2023-05-19T11:30:52.150Z,6.62
2023-05-19T11:33:20.907Z,8.27
2023-05-19T11:35:49.861Z,6.82
2023-05-19T11:38:18.580Z,6.43
2023-05-19T11:40:47.732Z,7.03
2023-05-19T11:43:16.788Z,8.32
2023-05-19T11:45:44.908Z,6.72
2023-05-19T11:48:13.048Z,6.07
2023-05-19T11:50:44.202Z,6.53
2023-05-19T11:53:13.334Z,6.40
2023-05-19T11:55:47.576Z,7.45
2023-05-19T11:58:15.525Z,7.25
2023-05-19T12:00:45.940Z,6.50
2023-05-19T12:03:13.924Z,7.35
2023-05-19T12:05:45.487Z,5.90
2023-05-19T12:08:13.693Z,8.55
2023-05-19T12:10:41.254Z,6.28
2023-05-19T12:13:11.799Z,7.50
2023-05-19T12:15:39.731Z,6.37
2023-05-19T12:18:07.498Z,6.65
2023-05-19T12:20:38.238Z,6.85
2023-05-19T12:23:06.496Z,5.40
2023-05-19T12:25:34.293Z,5.50
2023-05-19T12:28:05.006Z,5.20
2023-05-19T12:30:33.953Z,6.22
2023-05-19T12:33:02.596Z,6.00
2023-05-19T12:35:32.140Z,5.45
2023-05-19T12:38:04.244Z,5.72
2023-05-19T12:40:32.033Z,5.53
2023-05-19T12:43:00.421Z,5.78
2023-05-19T12:45:28.431Z,6.37
2023-05-19T12:47:56.733Z,5.80
2023-05-19T12:50:30.575Z,5.35
2023-05-19T12:52:59.822Z,5.55
2023-05-19T12:55:27.750Z,5.68
2023-05-19T12:57:57.383Z,8.52
2023-05-19T13:00:27.789Z,7.60
2023-05-19T13:03:02.958Z,6.30
2023-05-19T13:05:32.108Z,8.55
2023-05-19T13:08:09.795Z,9.13
2023-05-19T13:10:39.321Z,7.97
2023-05-19T13:13:07.573Z,8.60
2023-05-19T13:15:45.720Z,7.07
2023-05-19T13:18:13.718Z,6.50
2023-05-19T13:20:42.644Z,7.78
2023-05-19T13:23:10.777Z,9.75
2023-05-19T13:25:38.676Z,8.15
2023-05-19T13:28:06.750Z,6.57
2023-05-19T13:30:39.018Z,8.02
2023-05-19T13:33:07.010Z,7.03
2023-05-19T13:35:37.596Z,8.63
2023-05-19T13:38:06.798Z,7.45
2023-05-19T13:40:35.108Z,7.72
2023-05-19T13:43:03.448Z,5.55
2023-05-19T13:45:30.962Z,7.50
2023-05-19T13:47:58.879Z,8.55
2023-05-19T13:50:26.519Z,8.10
2023-05-19T13:52:54.200Z,7.68
2023-05-19T13:55:23.316Z,7.78
2023-05-19T13:57:51.014Z,6.78
2023-05-19T14:00:19.180Z,7.32
2023-05-19T14:02:47.027Z,6.10
2023-05-19T14:05:14.659Z,7.95
2023-05-19T14:07:42.606Z,7.60
2023-05-19T14:10:10.560Z,8.98
2023-05-19T14:12:55.266Z,5.97
2023-05-19T14:15:26.795Z,7.70
2023-05-19T14:17:54.509Z,8.35
2023-05-19T14:20:22.074Z,9.60
2023-05-19T14:22:50.157Z,6.93
2023-05-19T14:25:17.603Z,9.52
2023-05-19T14:27:45.036Z,6.53
2023-05-19T14:30:12.972Z,6.50
2023-05-19T14:32:40.513Z,7.03
2023-05-19T14:35:08.102Z,6.90
2023-05-19T14:37:35.858Z,6.65
2023-05-19T14:40:04.572Z,6.68
2023-05-19T14:42:32.175Z,9.73
2023-05-19T14:44:59.963Z,10.70
2023-05-19T14:47:27.590Z,8.40
2023-05-19T14:49:55.225Z,10.77
2023-05-19T14:52:23.073Z,12.50
2023-05-19T14:54:50.541Z,8.25
2023-05-19T14:57:18.048Z,7.78
2023-05-19T14:59:45.804Z,12.07
2023-05-19T15:02:13.323Z,9.55
2023-05-19T15:04:40.871Z,10.38
2023-05-19T15:07:10.375Z,9.13
2023-05-19T15:09:38.543Z,9.82
2023-05-19T15:12:06.145Z,13.98
2023-05-19T15:14:33.967Z,10.57
2023-05-19T15:17:01.645Z,9.52
2023-05-19T15:19:29.270Z,10.27
2023-05-19T15:21:57.029Z,10.95
2023-05-19T15:24:24.477Z,11.82
2023-05-19T15:26:52.447Z,11.50
2023-05-19T15:29:20.366Z,9.13
2023-05-19T15:31:51.788Z,7.32
2023-05-19T15:34:22.360Z,7.40
2023-05-19T15:36:50.167Z,10.48
2023-05-19T15:39:17.862Z,11.40
2023-05-19T15:41:45.322Z,10.35
2023-05-19T15:44:13.132Z,10.27
2023-05-19T15:46:40.726Z,8.55
2023-05-19T15:49:08.303Z,8.10
2023-05-19T15:51:36.071Z,10.32
2023-05-19T15:54:03.545Z,8.70
2023-05-19T15:56:31.055Z,7.80
2023-05-19T15:58:58.910Z,7.10
2023-05-19T16:01:26.621Z,6.82
2023-05-19T16:03:54.624Z,6.50
2023-05-19T16:06:22.286Z,6.87
2023-05-19T16:08:49.796Z,7.95
2023-05-19T16:11:18.369Z,7.18
2023-05-19T16:13:45.835Z,9.23
2023-05-19T16:16:13.405Z,8.73
2023-05-19T16:18:41.396Z,8.13
2023-05-19T16:21:08.924Z,10.07
2023-05-19T16:23:36.387Z,9.77
2023-05-19T16:26:04.250Z,6.78
2023-05-19T16:28:32.459Z,10.32
2023-05-19T16:31:00.240Z,11.63
2023-05-19T16:33:28.325Z,11.38
2023-05-19T16:35:56.273Z,9.68
2023-05-19T16:38:24.014Z,8.77
2023-05-19T16:40:52.091Z,11.38
2023-05-19T16:43:19.522Z,8.30
2023-05-19T16:45:47.028Z,8.00
2023-05-19T16:48:14.803Z,7.22
2023-05-19T16:50:42.391Z,7.53
2023-05-19T16:53:09.874Z,7.50
2023-05-19T16:55:37.587Z,7.60
2023-05-19T16:58:05.106Z,8.10
2023-05-19T17:00:32.722Z,7.87
2023-05-19T17:03:00.920Z,8.23
2023-05-19T17:05:29.067Z,9.68
2023-05-19T17:07:56.557Z,8.18
2023-05-19T17:10:24.272Z,6.82
2023-05-19T17:12:51.877Z,7.87
2023-05-19T17:15:19.376Z,8.00
2023-05-19T17:17:47.155Z,5.55
2023-05-19T17:20:14.871Z,6.12
2023-05-19T17:22:42.322Z,6.05
2023-05-19T17:25:10.123Z,7.70
2023-05-19T17:27:37.699Z,6.50
2023-05-19T17:30:06.230Z,6.22
2023-05-19T17:32:38.512Z,10.18
2023-05-19T17:35:06.870Z,6.45
2023-05-19T17:37:34.729Z,8.88
2023-05-19T17:40:02.226Z,7.43
2023-05-19T17:42:31.689Z,6.35
2023-05-19T17:44:59.684Z,10.45
2023-05-19T17:47:27.350Z,6.90
2023-05-19T17:49:54.848Z,8.15
2023-05-19T17:52:23.022Z,7.22
2023-05-19T17:54:50.752Z,9.35
2023-05-19T17:57:18.537Z,6.53
2023-05-19T17:59:46.575Z,6.57
2023-05-19T18:02:15.715Z,6.05
2023-05-19T18:04:43.816Z,9.13
2023-05-19T18:07:11.968Z,7.68
2023-05-19T18:09:39.748Z,8.45
2023-05-19T18:12:08.015Z,7.70
2023-05-19T18:14:35.551Z,6.40
2023-05-19T18:17:03.051Z,5.50
2023-05-19T18:19:30.802Z,6.15
2023-05-19T18:21:58.302Z,5.68
2023-05-19T18:24:25.813Z,7.47
2023-05-19T18:26:53.536Z,6.10
2023-05-19T18:29:21.032Z,9.02
2023-05-19T18:31:48.553Z,7.68
2023-05-19T18:34:16.338Z,7.57
2023-05-19T18:36:43.902Z,8.45
2023-05-19T18:39:11.537Z,8.25
2023-05-19T18:41:42.686Z,7.05
2023-05-19T18:44:11.131Z,6.60
2023-05-19T18:46:38.899Z,9.73
2023-05-19T18:49:06.352Z,5.60
2023-05-19T18:51:35.992Z,6.35
2023-05-19T18:54:03.857Z,9.85
2023-05-19T18:56:33.303Z,6.70
2023-05-19T18:59:00.838Z,7.90
2023-05-19T19:01:28.768Z,7.75
2023-05-19T19:03:56.409Z,7.68
2023-05-19T19:06:24.106Z,6.85
2023-05-19T19:08:51.977Z,8.25
2023-05-19T19:11:19.521Z,8.15
2023-05-19T19:13:51.036Z,6.90
2023-05-19T19:16:19.116Z,6.15
2023-05-19T19:18:46.992Z,8.13
2023-05-19T19:21:14.626Z,7.15
2023-05-19T19:23:42.426Z,7.55
2023-05-19T19:26:10.030Z,6.82
2023-05-19T19:28:37.923Z,7.97
2023-05-19T19:31:05.653Z,6.43
2023-05-19T19:33:33.158Z,7.62
2023-05-19T19:36:01.398Z,10.35
2023-05-19T19:38:29.314Z,7.72
2023-05-19T19:40:56.858Z,6.70
2023-05-19T19:43:24.394Z,8.52
2023-05-19T19:46:00.634Z,7.57
2023-05-19T19:48:28.509Z,6.95
2023-05-19T19:50:56.931Z,9.02
2023-05-19T19:53:24.403Z,6.53
2023-05-19T19:56:01.580Z,9.57
2023-05-19T19:58:29.396Z,7.68
2023-05-19T20:01:01.301Z,9.00
2023-05-19T20:03:29.419Z,8.35
2023-05-19T20:05:57.116Z,8.32
2023-05-19T20:08:24.918Z,6.90
2023-05-19T20:10:53.035Z,11.10
2023-05-19T20:13:20.744Z,12.73
2023-05-19T20:15:48.302Z,11.80
2023-05-19T20:18:16.202Z,10.90
2023-05-19T20:20:43.787Z,8.02
2023-05-19T20:23:12.586Z,8.68
2023-05-19T20:25:53.693Z,7.50
2023-05-19T20:28:26.324Z,11.15
2023-05-19T20:30:54.057Z,6.90
2023-05-19T20:33:21.567Z,9.88
2023-05-19T20:35:49.031Z,6.55
2023-05-19T20:38:16.722Z,6.78
2023-05-19T20:40:44.282Z,7.55
2023-05-19T20:43:12.256Z,7.72
2023-05-19T20:45:42.496Z,8.32
2023-05-19T20:48:11.386Z,7.43
2023-05-19T20:50:39.306Z,6.32
2023-05-19T20:53:07.522Z,8.25
2023-05-19T20:55:37.940Z,7.20
2023-05-19T20:58:05.493Z,9.75
2023-05-19T21:00:33.784Z,6.85
2023-05-19T21:03:01.797Z,9.68
2023-05-19T21:05:29.377Z,6.32
2023-05-19T21:07:57.151Z,6.00
2023-05-19T21:10:24.617Z,7.53
2023-05-19T21:12:52.053Z,7.60
2023-05-19T21:15:19.887Z,6.53
2023-05-19T21:17:47.596Z,7.32
2023-05-19T21:20:15.042Z,8.98
2023-05-19T21:22:42.786Z,7.47
2023-05-19T21:25:10.468Z,9.98
2023-05-19T21:27:39.485Z,9.32
2023-05-19T21:30:07.749Z,7.35
2023-05-19T21:32:35.427Z,8.35
2023-05-19T21:35:03.119Z,8.45
2023-05-19T21:37:30.802Z,7.97
2023-05-19T21:39:58.424Z,6.32
2023-05-19T21:42:25.898Z,6.85
2023-05-19T21:44:53.676Z,8.05
2023-05-19T21:47:21.112Z,6.57
2023-05-19T21:49:48.598Z,7.45
2023-05-19T21:52:16.336Z,7.12
2023-05-19T21:54:43.757Z,11.12
2023-05-19T21:57:12.622Z,6.47
2023-05-19T21:59:40.453Z,8.47
2023-05-19T22:02:08.126Z,7.07
2023-05-19T22:04:37.060Z,5.15
2023-05-19T22:07:06.390Z,6.22
2023-05-19T22:09:33.886Z,7.25
2023-05-19T22:12:01.612Z,6.37
2023-05-19T22:14:29.065Z,6.10
2023-05-19T22:16:56.594Z,6.05
2023-05-19T22:19:24.415Z,5.95
2023-05-19T22:22:01.603Z,7.70
2023-05-19T22:24:34.402Z,6.62
2023-05-19T22:27:01.867Z,6.18
2023-05-19T22:29:29.337Z,8.02
2023-05-19T22:31:57.020Z,5.28
2023-05-19T22:34:24.535Z,7.85
2023-05-19T22:36:52.027Z,7.40
2023-05-19T22:39:19.787Z,6.93
2023-05-19T22:41:47.331Z,6.65
2023-05-19T22:44:16.267Z,9.35
2023-05-19T22:46:48.201Z,5.50
2023-05-19T22:49:15.649Z,6.28
2023-05-19T22:51:43.127Z,6.18
2023-05-19T22:54:10.987Z,6.60
2023-05-19T22:56:38.465Z,5.53
2023-05-19T22:59:06.207Z,6.43
2023-05-19T23:01:34.052Z,6.55
2023-05-19T23:04:01.603Z,7.37
2023-05-19T23:06:29.114Z,8.48
2023-05-19T23:09:03.652Z,5.35
2023-05-19T23:11:31.127Z,6.75
2023-05-19T23:13:58.959Z,9.18
2023-05-19T23:16:26.440Z,7.20
2023-05-19T23:18:53.962Z,7.37
2023-05-19T23:21:21.698Z,6.40
2023-05-19T23:23:49.770Z,4.85
2023-05-19T23:26:17.236Z,5.40
2023-05-19T23:28:44.931Z,6.35
2023-05-19T23:31:12.391Z,8.30
2023-05-19T23:33:39.940Z,6.20
2023-05-19T23:36:08.550Z,5.40
2023-05-19T23:38:36.619Z,6.55
2023-05-19T23:41:04.987Z,5.45
2023-05-19T23:43:32.860Z,6.10
2023-05-19T23:46:00.584Z,5.70
2023-05-19T23:48:28.737Z,6.97
2023-05-19T23:50:57.391Z,6.15
2023-05-19T23:53:25.060Z,5.97
2023-05-19T23:55:52.587Z,6.12
2023-05-19T23:58:20.679Z,5.93
